Time;durP1;ratioP1;P1;durP2;ratioP2;P2;SDS_P1;SDS_P2;PMS_P1;PMS_P2;Temp;Humidity;BMP_temperature;BMP_pressure;BME280_temperature;BME280_humidity;BME280_pressure;Samples;Min_cycle;Max_cycle;Signal;HPM_P1;HPM_P2
2023/07/16 00:02:07;;;;;;;3.63;2.85;;;;;;;27.70;52.66;99799.31;5029888;28;20022;-46
2023/07/16 00:04:33;;;;;;;3.00;2.70;;;;;;;28.05;51.67;99800.22;5030337;28;20032;-45
2023/07/16 00:07:04;;;;;;;3.78;2.90;;;;;;;28.08;51.53;99793.31;5029954;28;20121;-44
2023/07/16 00:09:29;;;;;;;4.18;3.03;;;;;;;28.03;51.41;99801.69;5030032;28;20449;-43
2023/07/16 00:11:55;;;;;;;3.72;2.80;;;;;;;28.12;51.32;99798.94;5029755;28;20095;-44
2023/07/16 00:14:21;;;;;;;4.18;2.70;;;;;;;27.58;52.92;99799.91;5030011;28;20037;-44
2023/07/16 00:16:46;;;;;;;6.07;2.95;;;;;;;27.29;53.72;99801.22;5029864;28;20077;-46
2023/07/16 00:19:12;;;;;;;4.68;2.95;;;;;;;27.12;53.94;99798.38;5030037;28;20373;-46
2023/07/16 00:21:38;;;;;;;4.70;2.88;;;;;;;27.22;53.78;99803.56;5029693;28;20437;-46
2023/07/16 00:24:04;;;;;;;4.57;2.80;;;;;;;27.28;53.70;99796.06;5029748;28;20026;-45
2023/07/16 00:26:30;;;;;;;3.70;2.85;;;;;;;27.43;52.84;99798.41;5029841;28;20126;-46
2023/07/16 00:28:55;;;;;;;4.38;3.03;;;;;;;27.41;52.61;99808.03;5029689;28;20501;-47
2023/07/16 00:31:21;;;;;;;3.63;2.80;;;;;;;26.90;53.82;99805.50;5029553;28;20034;-46
2023/07/16 00:33:46;;;;;;;4.18;2.95;;;;;;;26.80;54.34;99810.38;5029452;28;20067;-44
2023/07/16 00:36:12;;;;;;;4.45;3.10;;;;;;;26.92;54.02;99810.63;5030000;28;20442;-45
2023/07/16 00:38:37;;;;;;;3.67;2.90;;;;;;;27.30;52.93;99812.97;5029864;28;20481;-45
2023/07/16 00:41:02;;;;;;;3.50;2.88;;;;;;;27.03;53.45;99805.72;5029661;28;20029;-46
2023/07/16 00:43:28;;;;;;;4.15;3.10;;;;;;;27.36;52.58;99802.69;5029828;28;20017;-47
2023/07/16 00:45:54;;;;;;;4.18;3.10;;;;;;;26.86;53.82;99809.94;5029812;28;20029;-43
2023/07/16 00:48:19;;;;;;;4.68;3.22;;;;;;;26.40;55.17;99811.00;5029575;28;20120;-44
2023/07/16 00:50:45;;;;;;;5.18;2.90;;;;;;;26.44;55.26;99812.00;5033604;28;20029;-44
2023/07/16 00:53:12;;;;;;;6.03;3.08;;;;;;;26.30;55.63;99800.31;5033366;28;20451;-43
2023/07/16 00:55:38;;;;;;;5.00;2.90;;;;;;;26.38;55.50;99796.06;5032649;28;20116;-45
2023/07/16 00:58:05;;;;;;;4.60;3.10;;;;;;;26.64;54.58;99802.56;5033150;28;20388;-47
2023/07/16 01:00:36;;;;;;;5.78;3.00;;;;;;;26.71;54.47;99797.50;5033131;28;20106;-44
2023/07/16 01:03:03;;;;;;;4.18;2.80;;;;;;;26.60;54.77;99798.03;5033383;28;20057;-44
2023/07/16 01:05:36;;;;;;;3.50;2.60;;;;;;;26.72;54.31;99796.34;5033511;28;20112;-46
2023/07/16 01:08:06;;;;;;;5.03;2.97;;;;;;;26.76;54.25;99803.94;5033282;28;20021;-45
2023/07/16 01:10:31;;;;;;;3.95;2.75;;;;;;;27.01;53.39;99795.09;5033127;28;20059;-45
2023/07/16 01:12:58;;;;;;;3.70;3.00;;;;;;;27.16;53.01;99804.81;5032957;28;20041;-45
2023/07/16 01:15:24;;;;;;;3.90;2.90;;;;;;;27.06;53.40;99803.16;5033059;28;20491;-43
2023/07/16 01:17:49;;;;;;;5.07;2.75;;;;;;;26.96;53.55;99799.88;5032869;28;20029;-47
2023/07/16 01:20:15;;;;;;;3.58;2.90;;;;;;;27.02;53.50;99799.47;5033408;28;20049;-43
2023/07/16 01:23:12;;;;;;;5.05;3.00;;;;;;;26.94;53.87;99802.94;5033129;28;20021;-47
2023/07/16 01:25:43;;;;;;;3.20;2.80;;;;;;;26.92;53.81;99803.25;5032975;28;20032;-45
2023/07/16 01:28:34;;;;;;;4.47;3.00;;;;;;;26.69;54.49;99809.81;5032907;28;20036;-44
2023/07/16 01:31:01;;;;;;;3.40;2.90;;;;;;;26.73;54.45;99810.81;5032532;28;20094;-42
2023/07/16 01:33:27;;;;;;;4.60;2.97;;;;;;;26.76;54.41;99807.47;5032958;28;20029;-43
2023/07/16 01:35:53;;;;;;;4.07;3.08;;;;;;;26.79;54.33;99809.59;5033112;28;20098;-43
2023/07/16 01:38:20;;;;;;;3.95;2.95;;;;;;;26.80;54.34;99807.66;5032751;28;20037;-46
2023/07/16 01:40:47;;;;;;;4.20;2.80;;;;;;;26.56;54.81;99813.38;5032472;28;20504;-44
2023/07/16 01:43:12;;;;;;;4.82;3.25;;;;;;;26.44;55.52;99812.00;5032802;28;20124;-44
2023/07/16 01:45:38;;;;;;;3.40;2.80;;;;;;;26.36;55.73;99810.00;5032612;28;20115;-45
2023/07/16 01:48:12;;;;;;;5.90;2.90;;;;;;;26.25;56.15;99824.97;5032675;28;20056;-43
2023/07/16 01:50:37;;;;;;;3.25;2.95;;;;;;;26.21;56.14;99821.25;5032615;28;20025;-45
2023/07/16 01:53:03;;;;;;;4.05;3.13;;;;;;;25.97;57.10;99818.75;5032491;28;20025;-45
2023/07/16 01:55:28;;;;;;;3.40;2.92;;;;;;;26.18;56.63;99819.94;5032466;28;20128;-46
2023/07/16 01:57:53;;;;;;;3.33;2.55;;;;;;;25.97;57.13;99821.47;5032476;28;20435;-43
2023/07/16 02:00:19;;;;;;;3.90;3.03;;;;;;;25.84;57.22;99817.63;5032143;28;20029;-44
2023/07/16 02:02:45;;;;;;;4.97;3.10;;;;;;;25.75;57.84;99818.31;5032427;28;20489;-45
2023/07/16 02:05:11;;;;;;;5.53;3.28;;;;;;;25.77;57.96;99817.22;5032581;28;20025;-46
2023/07/16 02:07:36;;;;;;;5.18;3.00;;;;;;;25.80;57.88;99820.16;5031756;28;20021;-43
2023/07/16 02:10:02;;;;;;;3.80;3.22;;;;;;;25.78;57.79;99818.81;5032110;28;20087;-45
2023/07/16 02:12:27;;;;;;;5.50;3.20;;;;;;;25.82;57.97;99817.94;5031619;28;20060;-45
2023/07/16 02:14:53;;;;;;;6.60;3.42;;;;;;;25.55;58.65;99825.00;5032193;28;20025;-44
2023/07/16 02:17:18;;;;;;;6.55;3.17;;;;;;;25.51;58.74;99829.44;5031964;28;20059;-44
2023/07/16 02:19:44;;;;;;;5.20;3.00;;;;;;;25.62;58.79;99832.75;5032027;28;20030;-43
2023/07/16 02:22:09;;;;;;;4.22;3.03;;;;;;;25.77;58.07;99823.47;5031915;28;20025;-44
2023/07/16 02:24:35;;;;;;;4.15;2.90;;;;;;;25.75;58.19;99818.31;5031928;28;20029;-43
2023/07/16 02:27:01;;;;;;;4.68;3.22;;;;;;;25.96;57.39;99823.41;5031945;28;20021;-46
2023/07/16 02:29:26;;;;;;;3.78;3.28;;;;;;;25.88;57.69;99829.53;5031702;28;20025;-44
2023/07/16 02:31:52;;;;;;;4.80;3.25;;;;;;;25.41;59.39;99828.81;5031790;28;20017;-47
2023/07/16 02:34:17;;;;;;;5.22;3.38;;;;;;;25.26;59.99;99829.88;5031851;28;20139;-46
2023/07/16 02:36:43;;;;;;;5.72;3.17;;;;;;;25.51;59.37;99834.06;5031810;28;20018;-45
2023/07/16 02:39:08;;;;;;;3.75;3.17;;;;;;;25.59;58.82;99829.81;5031552;28;20032;-43
2023/07/16 02:41:33;;;;;;;4.45;3.30;;;;;;;25.75;58.75;99834.69;5031616;28;20029;-43
2023/07/16 02:44:01;;;;;;;4.78;3.42;;;;;;;25.96;57.63;99833.50;5031490;28;20013;-44
2023/07/16 02:46:27;;;;;;;5.47;3.10;;;;;;;26.02;57.96;99837.75;5031158;28;20315;-44
2023/07/16 02:48:52;;;;;;;4.45;3.42;;;;;;;25.92;57.94;99836.84;5031204;28;20103;-44
2023/07/16 02:51:18;;;;;;;4.72;3.22;;;;;;;25.90;58.00;99830.84;5031661;28;20032;-43
2023/07/16 02:53:43;;;;;;;3.83;3.17;;;;;;;25.80;58.14;99836.50;5031084;28;20056;-47
2023/07/16 02:56:09;;;;;;;5.57;3.40;;;;;;;25.67;58.40;99840.84;5031124;28;20021;-45
2023/07/16 02:58:34;;;;;;;4.85;3.35;;;;;;;25.58;59.01;99839.91;5031132;28;20338;-47
2023/07/16 03:00:59;;;;;;;4.97;3.28;;;;;;;25.68;58.43;99842.47;5031123;28;20028;-45
2023/07/16 03:03:25;;;;;;;4.15;3.38;;;;;;;25.65;58.57;99842.25;5031652;28;20082;-44
2023/07/16 03:05:50;;;;;;;4.57;3.60;;;;;;;25.67;58.82;99834.59;5031181;28;20025;-43
2023/07/16 03:08:16;;;;;;;4.75;3.35;;;;;;;25.80;58.43;99832.97;5031268;28;20029;-45
2023/07/16 03:10:41;;;;;;;4.53;3.60;;;;;;;25.94;58.26;99839.25;5030565;28;20607;-44
2023/07/16 03:13:06;;;;;;;4.90;3.50;;;;;;;25.78;57.99;99827.84;5029436;28;20413;-43
2023/07/16 03:15:32;;;;;;;5.68;3.63;;;;;;;25.82;58.17;99836.22;5030544;28;20122;-43
2023/07/16 03:17:57;;;;;;;4.45;3.33;;;;;;;25.81;58.33;99832.66;5030529;28;20436;-44
2023/07/16 03:20:23;;;;;;;5.38;3.50;;;;;;;25.62;58.98;99846.38;5030955;28;20033;-44
2023/07/16 03:22:48;;;;;;;6.35;3.63;;;;;;;25.48;59.29;99837.41;5030750;28;20022;-47
2023/07/16 03:25:14;;;;;;;4.93;3.53;;;;;;;25.57;59.10;99841.03;5030594;28;20031;-47
2023/07/16 03:27:40;;;;;;;5.88;3.50;;;;;;;25.66;58.48;99844.66;5030574;28;20028;-46
2023/07/16 03:30:06;;;;;;;4.15;3.53;;;;;;;25.54;58.95;99850.59;5031121;28;20037;-44
2023/07/16 03:32:31;;;;;;;4.50;3.45;;;;;;;25.53;59.11;99850.91;5030830;28;20041;-42
2023/07/16 03:34:57;;;;;;;5.82;3.67;;;;;;;25.86;58.37;99850.84;5030967;28;20063;-45
2023/07/16 03:37:22;;;;;;;8.68;3.67;;;;;;;25.97;57.93;99848.72;5030613;28;20025;-45
2023/07/16 03:39:48;;;;;;;5.90;3.90;;;;;;;26.10;57.77;99856.09;5030608;28;20040;-48
2023/07/16 03:42:13;;;;;;;5.35;3.70;;;;;;;26.18;57.73;99849.13;5030812;28;20079;-48
2023/07/16 03:44:38;;;;;;;5.40;3.58;;;;;;;26.29;57.17;99850.53;5030502;28;20390;-44
2023/07/16 03:47:04;;;;;;;5.10;3.70;;;;;;;26.42;57.02;99855.13;5026890;28;20048;-44
2023/07/16 03:49:29;;;;;;;5.13;3.40;;;;;;;26.43;57.50;99847.78;5029741;28;20021;-44
2023/07/16 03:51:55;;;;;;;5.15;3.92;;;;;;;26.46;57.22;99855.34;5029252;28;20130;-48
2023/07/16 03:54:20;;;;;;;4.68;3.42;;;;;;;26.92;56.18;99851.56;5029951;28;20021;-44
2023/07/16 03:56:46;;;;;;;4.43;3.78;;;;;;;27.05;55.67;99853.44;5030272;28;20028;-44
2023/07/16 03:59:11;;;;;;;6.22;3.28;;;;;;;27.10;55.98;99860.69;5029879;28;20021;-45
2023/07/16 04:01:36;;;;;;;4.72;3.38;;;;;;;27.44;54.78;99859.34;5030120;28;20024;-46
2023/07/16 04:04:02;;;;;;;4.65;3.40;;;;;;;27.82;53.53;99859.66;5029925;28;20017;-45
2023/07/16 04:06:27;;;;;;;3.95;3.35;;;;;;;27.87;52.71;99855.97;5030207;28;20158;-45
2023/07/16 04:08:53;;;;;;;4.50;3.60;;;;;;;27.72;53.20;99864.59;5030114;28;20024;-43
2023/07/16 04:11:18;;;;;;;5.03;3.45;;;;;;;28.03;52.39;99864.59;5029793;28;20493;-44
2023/07/16 04:13:43;;;;;;;4.82;3.63;;;;;;;28.19;52.19;99863.00;5029935;28;20025;-43
2023/07/16 04:16:09;;;;;;;5.35;3.65;;;;;;;28.66;50.82;99866.00;5029747;28;20013;-44
2023/07/16 04:18:34;;;;;;;4.50;3.42;;;;;;;28.95;50.06;99870.00;5029570;28;20105;-49
2023/07/16 04:21:00;;;;;;;4.60;3.65;;;;;;;29.03;49.62;99871.13;5028932;28;20108;-45
2023/07/16 04:23:25;;;;;;;5.75;3.85;;;;;;;29.04;48.94;99870.00;5030160;28;20021;-46
2023/07/16 04:25:53;;;;;;;5.90;4.35;;;;;;;29.22;48.60;99865.31;5029374;28;20116;-44
2023/07/16 04:28:18;;;;;;;6.57;4.25;;;;;;;29.23;48.39;99869.69;5029874;28;20017;-45
2023/07/16 04:30:44;;;;;;;5.45;3.80;;;;;;;29.02;48.68;99875.81;5030131;28;20025;-41
2023/07/16 04:33:09;;;;;;;5.43;3.80;;;;;;;28.85;49.42;99878.56;5030070;28;20523;-45
2023/07/16 04:35:35;;;;;;;4.57;3.40;;;;;;;28.78;49.02;99881.78;5030201;28;20026;-48
2023/07/16 04:38:00;;;;;;;6.03;3.70;;;;;;;29.06;48.77;99878.72;5030150;28;20059;-46
2023/07/16 04:40:25;;;;;;;4.72;3.60;;;;;;;29.12;49.04;99868.38;5030129;28;20059;-44
2023/07/16 04:42:51;;;;;;;5.45;3.63;;;;;;;29.38;47.95;99884.81;5037057;28;20040;-45
2023/07/16 04:45:16;;;;;;;5.25;3.67;;;;;;;29.02;48.63;99875.81;5028814;28;20036;-44
2023/07/16 04:47:42;;;;;;;4.25;3.28;;;;;;;29.29;48.15;99876.59;5029434;28;20025;-43
2023/07/16 04:50:08;;;;;;;5.00;3.83;;;;;;;29.20;48.11;99868.38;5029615;28;20021;-45
2023/07/16 04:52:33;;;;;;;4.05;3.35;;;;;;;29.19;48.73;99883.22;5029506;28;20079;-45
2023/07/16 04:54:58;;;;;;;5.68;3.70;;;;;;;29.39;47.75;99889.16;5029639;28;20040;-44
2023/07/16 04:57:24;;;;;;;5.75;3.60;;;;;;;29.55;47.26;99889.41;5029364;28;20456;-43
2023/07/16 04:59:49;;;;;;;5.90;3.53;;;;;;;29.20;47.29;99889.50;5029669;28;20461;-43
2023/07/16 05:02:16;;;;;;;5.70;3.78;;;;;;;29.21;47.50;99896.59;5027960;28;20022;-43
2023/07/16 05:04:44;;;;;;;5.22;3.42;;;;;;;29.69;46.90;99901.00;5029565;28;20025;-44
2023/07/16 05:07:09;;;;;;;4.43;3.63;;;;;;;30.44;45.00;99900.50;5029740;28;20084;-44
2023/07/16 05:09:34;;;;;;;4.10;3.50;;;;;;;30.81;43.94;99898.00;5029928;28;20061;-45
2023/07/16 05:12:00;;;;;;;7.78;3.60;;;;;;;30.43;45.40;99904.41;5029215;28;20045;-43
2023/07/16 05:14:28;;;;;;;6.75;3.90;;;;;;;30.64;44.88;99895.38;5029933;28;20135;-46
2023/07/16 05:16:53;;;;;;;4.93;3.60;;;;;;;30.75;44.11;99907.56;5029644;28;20056;-43
2023/07/16 05:19:18;;;;;;;4.90;3.85;;;;;;;30.46;44.76;99911.94;5029690;28;20036;-42
2023/07/16 05:21:44;;;;;;;5.30;3.75;;;;;;;30.55;44.48;99909.97;5029511;28;20405;-44
2023/07/16 05:24:09;;;;;;;6.07;3.60;;;;;;;30.56;44.43;99916.28;5029934;28;20018;-43
2023/07/16 05:26:35;;;;;;;4.57;3.60;;;;;;;30.43;44.83;99917.34;5029686;28;20033;-43
2023/07/16 05:29:00;;;;;;;4.88;3.75;;;;;;;29.84;44.59;99912.59;5029959;28;20033;-43
2023/07/16 05:31:26;;;;;;;5.88;3.65;;;;;;;30.17;44.73;99916.28;5029637;28;20526;-43
2023/07/16 05:33:51;;;;;;;4.53;3.70;;;;;;;30.02;44.97;99917.69;5028251;28;20017;-42
2023/07/16 05:36:17;;;;;;;5.90;3.58;;;;;;;30.04;45.40;99920.06;5030281;28;20139;-44
2023/07/16 05:38:42;;;;;;;6.25;3.65;;;;;;;30.64;44.40;99918.16;5033057;28;20041;-42
2023/07/16 05:41:07;;;;;;;4.38;3.67;;;;;;;30.86;43.00;99916.19;5032590;28;20031;-44
2023/07/16 05:43:33;;;;;;;5.88;3.55;;;;;;;30.72;43.87;99913.72;5032245;28;20025;-44
2023/07/16 05:45:58;;;;;;;7.30;3.70;;;;;;;31.07;42.17;99914.28;5031459;28;20025;-44
2023/07/16 05:48:24;;;;;;;5.05;3.70;;;;;;;31.59;41.17;99912.97;5030833;28;20053;-43
2023/07/16 05:50:50;;;;;;;3.85;3.42;;;;;;;32.39;40.23;99919.09;5030677;28;20025;-48
2023/07/16 05:53:16;;;;;;;5.15;3.80;;;;;;;32.34;39.91;99920.94;5031022;28;20108;-45
2023/07/16 05:55:41;;;;;;;5.07;3.88;;;;;;;32.16;40.69;99919.59;5031023;28;20048;-43
2023/07/16 05:58:06;;;;;;;4.47;3.35;;;;;;;32.61;39.49;99932.38;5030834;28;20037;-44
2023/07/16 06:00:32;;;;;;;4.70;3.63;;;;;;;33.14;38.80;99926.06;5030733;28;20032;-42
2023/07/16 06:02:58;;;;;;;5.47;3.40;;;;;;;33.77;36.77;99925.38;5030644;28;20030;-43
2023/07/16 06:05:25;;;;;;;5.63;3.42;;;;;;;33.72;37.19;99926.47;5031223;28;20061;-43
2023/07/16 06:07:51;;;;;;;6.07;3.17;;;;;;;34.56;35.66;99922.53;5031527;28;20037;-46
2023/07/16 06:10:16;;;;;;;5.45;3.47;;;;;;;34.11;36.29;99926.63;5031347;28;20087;-45
2023/07/16 06:12:42;;;;;;;5.22;3.35;;;;;;;33.87;36.46;99916.56;5031547;28;20170;-45
2023/07/16 06:15:08;;;;;;;4.40;3.40;;;;;;;34.06;36.21;99915.84;5031807;28;20040;-44
2023/07/16 06:17:34;;;;;;;4.40;3.80;;;;;;;34.46;35.97;99926.69;5031801;28;20061;-43
2023/07/16 06:19:59;;;;;;;7.45;4.93;;;;;;;34.64;35.28;99927.06;5031473;28;20117;-45
2023/07/16 06:22:25;;;;;;;4.57;3.67;;;;;;;34.82;35.17;99910.91;5031802;28;20104;-44
2023/07/16 06:24:50;;;;;;;3.92;3.47;;;;;;;36.14;33.53;99916.44;5031705;28;20033;-44
2023/07/16 06:27:16;;;;;;;4.93;3.47;;;;;;;35.82;33.44;99914.75;5031879;28;20032;-43
2023/07/16 06:29:41;;;;;;;3.90;3.50;;;;;;;35.24;33.51;99923.16;5030587;28;20040;-45
2023/07/16 06:32:07;;;;;;;4.20;3.40;;;;;;;34.71;33.90;99914.56;5031350;28;20116;-44
2023/07/16 06:34:32;;;;;;;7.03;3.47;;;;;;;34.62;35.09;99912.81;5031469;28;20426;-43
2023/07/16 06:36:58;;;;;;;6.93;3.60;;;;;;;35.18;33.58;99916.34;5031506;28;20029;-42
2023/07/16 06:39:23;;;;;;;5.03;3.63;;;;;;;35.68;33.81;99910.94;5031284;28;20025;-45
2023/07/16 06:41:49;;;;;;;3.90;3.40;;;;;;;35.47;33.30;99901.09;5030874;28;20104;-44
2023/07/16 06:44:15;;;;;;;5.93;3.72;;;;;;;35.61;32.94;99897.75;5030897;28;20021;-44
2023/07/16 06:46:40;;;;;;;4.82;3.42;;;;;;;35.30;33.79;99893.25;5031351;28;20021;-43
2023/07/16 06:49:06;;;;;;;3.80;3.45;;;;;;;35.73;33.18;99892.06;5031357;28;20082;-43
2023/07/16 06:51:32;;;;;;;6.75;3.60;;;;;;;35.61;32.30;99887.50;5031154;28;20472;-43
2023/07/16 06:53:59;;;;;;;5.97;3.15;;;;;;;35.94;31.93;99880.53;5031214;28;20025;-43
2023/07/16 06:56:24;;;;;;;4.63;3.40;;;;;;;36.56;31.25;99885.00;5031321;28;20021;-44
2023/07/16 06:58:50;;;;;;;4.38;3.40;;;;;;;35.74;32.00;99893.66;5031079;28;20492;-45
2023/07/16 07:01:15;;;;;;;4.85;3.33;;;;;;;35.40;32.84;99887.91;5030957;28;20600;-44
2023/07/16 07:03:41;;;;;;;3.83;3.17;;;;;;;35.33;32.84;99890.56;5030796;28;20025;-44
2023/07/16 07:06:06;;;;;;;5.60;3.33;;;;;;;35.04;32.49;99890.00;5031060;28;20048;-44
2023/07/16 07:08:32;;;;;;;3.97;2.90;;;;;;;35.17;32.90;99889.84;5030981;28;20057;-42
2023/07/16 07:10:58;;;;;;;3.72;3.00;;;;;;;35.61;32.05;99895.00;5030857;28;20049;-43
2023/07/16 07:13:24;;;;;;;3.35;2.85;;;;;;;36.27;30.86;99878.25;5030788;28;20037;-41
2023/07/16 07:15:50;;;;;;;4.07;3.15;;;;;;;36.07;30.43;99885.88;5030742;28;20473;-43
2023/07/16 07:18:16;;;;;;;3.00;2.72;;;;;;;36.26;30.31;99880.25;5031346;28;20091;-44
2023/07/16 07:20:42;;;;;;;6.00;2.80;;;;;;;36.36;30.50;99884.31;5030317;28;20436;-44
2023/07/16 07:23:07;;;;;;;3.17;2.88;;;;;;;36.00;30.69;99887.38;5029266;28;20030;-43
2023/07/16 07:25:33;;;;;;;4.60;3.00;;;;;;;36.00;30.09;99881.00;5029564;28;20033;-43
2023/07/16 07:27:59;;;;;;;4.90;2.90;;;;;;;36.81;29.50;99885.31;5030291;28;20117;-43
2023/07/16 07:30:25;;;;;;;3.35;2.92;;;;;;;37.25;28.75;99890.19;5028783;28;20037;-43
2023/07/16 07:32:51;;;;;;;3.00;2.70;;;;;;;36.56;29.58;99880.25;5026890;28;20358;-44
2023/07/16 07:35:16;;;;;;;3.42;2.80;;;;;;;36.29;29.43;99884.22;5029882;28;20049;-44
2023/07/16 07:37:41;;;;;;;4.20;2.95;;;;;;;36.28;30.23;99886.19;5029661;28;20044;-43
2023/07/16 07:40:07;;;;;;;4.93;2.88;;;;;;;35.72;31.23;99881.34;5029644;28;20117;-44
2023/07/16 07:42:33;;;;;;;5.45;3.20;;;;;;;35.52;31.82;99877.84;5029539;28;20022;-43
2023/07/16 07:44:58;;;;;;;4.13;3.10;;;;;;;35.68;31.37;99880.50;5029494;28;20060;-45
2023/07/16 07:47:24;;;;;;;3.47;2.97;;;;;;;35.81;31.14;99873.59;5028592;28;20123;-44
2023/07/16 07:49:51;;;;;;;4.85;2.97;;;;;;;35.51;31.23;99879.00;5028160;28;20083;-45
2023/07/16 07:52:16;;;;;;;4.03;3.00;;;;;;;35.84;30.88;99870.09;5028353;28;20051;-43
2023/07/16 07:54:41;;;;;;;4.50;3.50;;;;;;;36.04;31.00;99875.53;5029418;28;20552;-44
2023/07/16 07:57:07;;;;;;;3.22;2.92;;;;;;;36.55;30.78;99880.63;5030082;28;20033;-44
2023/07/16 07:59:32;;;;;;;4.32;2.90;;;;;;;36.68;30.54;99873.69;5029440;28;20060;-43
2023/07/16 08:01:58;;;;;;;5.40;3.55;;;;;;;35.30;32.48;99871.94;5028804;28;20040;-45
2023/07/16 08:04:24;;;;;;;3.95;3.20;;;;;;;35.44;32.92;99874.16;5029165;28;20429;-43
2023/07/16 08:06:50;;;;;;;4.90;3.55;;;;;;;35.38;33.34;99870.91;5029006;28;20029;-42
2023/07/16 08:09:16;;;;;;;6.70;3.40;;;;;;;35.35;32.97;99870.81;5029262;28;20049;-43
2023/07/16 08:11:41;;;;;;;4.82;3.28;;;;;;;35.88;32.65;99865.41;5029339;28;20120;-44
2023/07/16 08:14:07;;;;;;;6.07;3.50;;;;;;;36.32;31.80;99864.09;5029867;28;20041;-46
2023/07/16 08:16:32;;;;;;;4.88;3.38;;;;;;;36.70;30.59;99867.78;5029805;28;20090;-45
2023/07/16 08:18:57;;;;;;;4.07;3.20;;;;;;;37.63;29.48;99860.44;5029909;28;20445;-44
2023/07/16 08:21:23;;;;;;;3.65;3.15;;;;;;;36.83;30.79;99866.34;5027924;28;20033;-47
2023/07/16 08:23:49;;;;;;;4.57;3.00;;;;;;;36.61;31.04;99868.03;5028775;28;20024;-46
2023/07/16 08:26:14;;;;;;;3.30;3.00;;;;;;;36.26;31.47;99868.38;5028929;28;20044;-47
2023/07/16 08:28:40;;;;;;;3.80;3.17;;;;;;;35.39;32.10;99866.16;5028639;28;20087;-46
2023/07/16 08:31:05;;;;;;;6.68;3.20;;;;;;;36.23;32.24;99864.34;5028961;28;20052;-44
2023/07/16 08:33:31;;;;;;;4.25;3.33;;;;;;;36.03;32.10;99855.34;5029414;28;20014;-46
2023/07/16 08:35:59;;;;;;;4.00;3.00;;;;;;;36.28;31.47;99858.50;5028986;28;20453;-43
2023/07/16 08:38:25;;;;;;;;;;;;;;;35.94;32.48;99835.44;5029852;28;20107;-44
2023/07/16 08:40:50;;;;;;;4.78;3.17;;;;;;;36.06;31.16;99860.13;5029133;28;20000;-47
2023/07/16 08:43:16;;;;;;;4.40;3.10;;;;;;;35.96;31.70;99850.50;5029128;28;20021;-48
2023/07/16 08:45:44;;;;;;;5.22;3.20;;;;;;;36.33;31.63;99852.63;5028594;28;20029;-46
2023/07/16 08:48:10;;;;;;;4.80;3.33;;;;;;;36.35;31.28;99849.50;5028688;28;20107;-45
2023/07/16 08:50:37;;;;;;;6.10;3.20;;;;;;;36.43;30.99;99845.63;5028201;28;20106;-44
2023/07/16 08:53:05;;;;;;;4.55;3.33;;;;;;;37.08;30.67;99849.19;5028949;28;20090;-44
2023/07/16 08:55:31;;;;;;;4.80;3.00;;;;;;;36.53;31.06;99850.50;5028764;28;20028;-44
2023/07/16 08:57:57;;;;;;;4.30;3.08;;;;;;;36.27;31.55;99847.78;5028779;28;20076;-44
2023/07/16 09:00:26;;;;;;;4.90;3.28;;;;;;;36.04;31.82;99843.09;5028062;28;20025;-46
2023/07/16 09:02:52;;;;;;;3.38;2.95;;;;;;;36.08;32.51;99845.91;5027498;28;20039;-45
2023/07/16 09:05:21;;;;;;;4.63;3.25;;;;;;;35.91;32.64;99842.53;5027510;28;20033;-45
2023/07/16 09:07:46;;;;;;;4.85;3.17;;;;;;;36.62;32.18;99841.13;5027158;28;20036;-43
2023/07/16 09:10:12;;;;;;;5.45;3.50;;;;;;;35.82;33.17;99851.09;5027409;28;20029;-46
2023/07/16 09:12:45;;;;;;;4.57;3.38;;;;;;;34.95;33.69;99845.19;5030902;28;20052;-44
2023/07/16 09:15:17;;;;;;;4.63;3.88;;;;;;;34.63;34.50;99848.09;5031286;28;20094;-48
2023/07/16 09:17:42;;;;;;;4.85;3.67;;;;;;;34.96;34.50;99848.78;5031267;28;20072;-47
2023/07/16 09:20:08;;;;;;;4.32;3.70;;;;;;;35.52;33.60;99845.44;5031367;28;20401;-42
2023/07/16 09:22:34;;;;;;;5.63;3.70;;;;;;;35.91;32.95;99842.53;5031693;28;20388;-45
2023/07/16 09:25:01;;;;;;;7.32;4.18;;;;;;;35.76;33.10;99838.75;5031130;28;20032;-48
2023/07/16 09:27:31;;;;;;;5.25;3.80;;;;;;;36.41;32.62;99842.44;5031024;28;20041;-44
2023/07/16 09:29:56;;;;;;;7.88;5.47;;;;;;;36.64;32.65;99836.78;5031320;28;20056;-43
2023/07/16 09:32:22;;;;;;;4.72;3.70;;;;;;;36.67;31.94;99844.38;5031196;28;20540;-44
2023/07/16 09:34:50;;;;;;;4.30;3.90;;;;;;;35.95;33.39;99837.06;5032007;28;20075;-44
2023/07/16 09:37:17;;;;;;;4.28;3.88;;;;;;;36.56;32.51;99830.38;5031613;28;20575;-46
2023/07/16 09:39:46;;;;;;;5.87;3.83;;;;;;;36.82;32.53;99837.00;5031785;28;20517;-46
2023/07/16 09:42:12;;;;;;;4.80;3.85;;;;;;;36.98;31.68;99825.72;5030433;28;20119;-42
2023/07/16 09:44:39;;;;;;;6.43;4.30;;;;;;;37.17;31.84;99817.19;5030703;28;20587;-43
2023/07/16 09:47:05;;;;;;;5.03;4.07;;;;;;;37.65;31.54;99815.66;5030277;28;20025;-44
2023/07/16 09:49:30;;;;;;;4.80;3.92;;;;;;;37.56;31.01;99816.72;5030338;28;20052;-44
2023/07/16 09:52:01;;;;;;;6.28;4.80;;;;;;;37.48;31.30;99814.28;5030946;28;20033;-45
2023/07/16 09:54:31;;;;;;;4.88;4.13;;;;;;;36.96;32.34;99808.66;5031312;28;20052;-47
2023/07/16 09:56:59;;;;;;;6.93;4.22;;;;;;;36.45;32.60;99806.47;5031046;28;20045;-47
2023/07/16 09:59:31;;;;;;;6.68;4.72;;;;;;;36.68;32.09;99807.16;5031270;28;20028;-45
2023/07/16 10:01:57;;;;;;;6.97;4.38;;;;;;;36.34;32.79;99796.06;5030137;28;20045;-43
2023/07/16 10:04:22;;;;;;;5.47;4.45;;;;;;;35.99;33.67;99797.16;5030559;28;20129;-47
2023/07/16 10:06:55;;;;;;;6.60;4.60;;;;;;;35.96;33.61;99795.13;5030243;28;20448;-44
2023/07/16 10:09:33;;;;;;;5.97;4.35;;;;;;;36.82;32.87;99787.13;5030440;28;20021;-43
2023/07/16 10:12:10;;;;;;;6.05;4.38;;;;;;;37.60;31.80;99788.22;5030532;28;20132;-45
2023/07/16 10:14:50;;;;;;;6.85;4.78;;;;;;;37.96;30.83;99789.25;5031385;28;20099;-47
2023/07/16 10:17:26;;;;;;;7.05;4.50;;;;;;;37.65;31.45;99777.56;5030980;28;20056;-46
2023/07/16 10:19:57;;;;;;;7.53;4.30;;;;;;;37.30;32.50;99783.63;5030787;28;20044;-43
2023/07/16 10:22:39;;;;;;;6.07;4.68;;;;;;;37.15;32.70;99779.94;5029645;28;20417;-45
2023/07/16 10:25:25;;;;;;;7.63;4.40;;;;;;;37.04;32.94;99773.47;5029931;28;20095;-44
2023/07/16 10:27:53;;;;;;;6.47;4.97;;;;;;;36.84;32.86;99781.19;5029440;28;20121;-43
2023/07/16 10:30:18;;;;;;;5.40;4.88;;;;;;;36.64;33.59;99770.28;5029592;28;20029;-44
2023/07/16 10:32:45;;;;;;;7.15;5.10;;;;;;;36.79;33.56;99762.94;5030299;28;20029;-43
2023/07/16 10:35:12;;;;;;;6.55;4.90;;;;;;;37.09;33.08;99773.09;5030814;28;20034;-45
2023/07/16 10:37:38;;;;;;;6.90;5.70;;;;;;;36.41;34.12;99767.66;5030648;28;20472;-45
2023/07/16 10:40:07;;;;;;;6.22;5.45;;;;;;;36.39;33.96;99770.00;5029802;28;20064;-43
2023/07/16 10:42:32;;;;;;;;;;;;;;;36.59;33.69;99763.13;5029911;28;20074;-45
2023/07/16 10:44:59;;;;;;;8.88;5.65;;;;;;;36.69;34.08;99758.88;5029280;28;20447;-45
2023/07/16 10:47:33;;;;;;;10.00;5.70;;;;;;;36.50;33.97;99759.03;5029343;28;20036;-44
2023/07/16 10:49:59;;;;;;;8.95;5.57;;;;;;;36.93;34.19;99756.72;5029335;28;20037;-45
2023/07/16 10:52:25;;;;;;;8.25;5.95;;;;;;;37.44;32.68;99744.91;5030026;28;20421;-44
2023/07/16 10:54:54;;;;;;;7.20;5.55;;;;;;;36.69;34.10;99747.81;5030066;28;20386;-42
2023/07/16 10:57:20;;;;;;;6.60;5.25;;;;;;;37.17;33.08;99739.53;5030168;28;20104;-43
2023/07/16 10:59:46;;;;;;;6.13;5.50;;;;;;;37.87;32.40;99738.81;5030292;28;20060;-45
2023/07/16 11:02:13;;;;;;;8.98;5.60;;;;;;;38.29;31.43;99740.22;5029199;28;20053;-43
2023/07/16 11:04:40;;;;;;;7.23;5.30;;;;;;;38.53;31.61;99738.69;5029308;28;20292;-46
2023/07/16 11:07:14;;;;;;;6.00;5.20;;;;;;;38.55;30.87;99730.00;5029104;28;20106;-42
2023/07/16 11:09:43;;;;;;;5.72;4.82;;;;;;;38.40;31.48;99729.94;5028978;28;20026;-44
2023/07/16 11:12:10;;;;;;;5.50;4.80;;;;;;;37.96;32.05;99725.38;5029434;28;20084;-43
2023/07/16 11:14:36;;;;;;;7.22;5.05;;;;;;;37.59;31.99;99718.03;5030210;28;20034;-45
2023/07/16 11:17:09;;;;;;;5.80;4.70;;;;;;;37.59;31.72;99715.25;5029594;28;20048;-43
2023/07/16 11:19:35;;;;;;;5.57;4.80;;;;;;;37.65;32.81;99715.72;5029957;28;20037;-46
2023/07/16 11:22:02;;;;;;;5.90;4.97;;;;;;;38.16;31.74;99709.25;5028776;28;20436;-43
2023/07/16 11:24:28;;;;;;;8.18;5.20;;;;;;;38.37;31.48;99714.06;5029358;28;20025;-46
2023/07/16 11:26:56;;;;;;;5.30;4.80;;;;;;;37.99;32.27;99715.50;5029315;28;20241;-43
2023/07/16 11:29:23;;;;;;;6.47;5.05;;;;;;;38.11;32.20;99707.63;5028851;28;20022;-46
2023/07/16 11:31:52;;;;;;;7.28;5.10;;;;;;;38.40;32.72;99712.47;5029245;28;20512;-46